Flight Track Log - Related Links

Times and Time Zones

All times are in EDT time to prevent confusion due to time zone crossing. See the FLG4211 flight status page for this flight to view local times or setup timezone preferences in your user account.


Time Position Orientation Groundspeed Altitude Reporting Facility
EDT Latitude Longitude Course Direction KTS MPH feet Rate Location/Type
Sun 01:47:34 PM 46.1667 -84.4500 180° South 190 219 4,300  Level Toronto Center
Sun 01:48:34 PM 46.1000 -84.4500 180° South 250 288 7,100 2,950 Climbing Toronto Center
Sun 01:49:00 PM 45.9126 -84.5655 191° South  Level FlightAware Approximate
Sun 01:49:34 PM 46.0167 -84.4333 172° South 270 311 10,200  Level Toronto Center
Sun 01:50:00 PM 45.8281 -84.5899 192° South  Level FlightAware Approximate
Sun 01:50:34 PM 45.9333 -84.4333 180° South 320 368 12,200  Level Toronto Center
Sun 01:51:00 PM 45.7438 -84.6152 192° South  Level FlightAware Approximate
Sun 01:51:34 PM 45.8333 -84.4167 173° South 330 380 14,500  Level Toronto Center
Sun 01:52:00 PM 45.6531 -84.6409 190° South  Level FlightAware Approximate
Sun 01:52:01 PM 45.8111 -84.4106 169° South 340 391 15,600  Level Minneapolis Center
Sun 01:53:03 PM 45.7053 -84.3936 174° South 356 410 17,600 1,742 Climbing Minneapolis Center
Sun 01:54:05 PM 45.6028 -84.3783 174° South 366 421 19,200 1,500 Climbing Minneapolis Center
Sun 01:55:07 PM 45.4994 -84.3636 174° South 368 423 20,700 1,306 Climbing Minneapolis Center
Sun 01:56:09 PM 45.3925 -84.3475 174° South 378 435 21,900 1,258 Climbing Minneapolis Center
Sun 01:57:11 PM 45.2819 -84.3289 173° South 391 450 23,300 1,355 Climbing Minneapolis Center
Sun 01:58:13 PM 45.1717 -84.3142 175° South 396 456 24,700 1,355 Climbing Minneapolis Center
Sun 01:59:15 PM 45.0619 -84.2958 173° South 396 456 26,100 1,113 Climbing Minneapolis Center
Sun 02:00:17 PM 44.9311 -84.2783 175° South 393 452 27,000 435 Climbing Minneapolis Center
Sun 02:01:19 PM 44.8167 -84.2622 174° South 404 465 27,000  Level Minneapolis Center
Sun 02:02:21 PM 44.6969 -84.2433 174° South 421 484 27,000  Level Minneapolis Center
Sun 02:03:23 PM 44.5792 -84.2275 175° South 425 489 27,000  Level Minneapolis Center
Sun 02:04:25 PM 44.4636 -84.2100 174° South 420 483 27,000  Level Minneapolis Center
Sun 02:05:27 PM 44.3478 -84.1939 174° South 418 481 27,000 -435 Level Minneapolis Center
Sun 02:06:29 PM 44.2325 -84.1781 174° South 417 480 26,100 -1,016 Descending Minneapolis Center
Sun 02:07:31 PM 44.0911 -84.1569 174° South 425 489 24,900 -1,065 Descending Minneapolis Center
Sun 02:08:33 PM 43.9725 -84.1394 174° South 427 491 23,900 -919 Descending Minneapolis Center
Sun 02:09:35 PM 43.8464 -84.1225 174° South 425 489 23,000 -435 Descending Minneapolis Center
Sun 02:10:37 PM 43.7300 -84.1069 174° South 423 487 23,000 -145 Level Minneapolis Center
Sun 02:11:39 PM 43.6192 -84.0900 174° South 409 471 22,700 -568 Descending Minneapolis Center
Sun 02:12:12 PM 43.5536 -84.0778 172° South 417 480 22,100 -1,161 Descending Cleveland Center
Sun 02:13:12 PM 43.4425 -84.0344 164° South 410 472 20,900 -1,150 Descending Cleveland Center
Sun 02:14:12 PM 43.3664 -83.9986 161° South 394 453 19,800 -1,400 Descending Cleveland Center
Sun 02:15:12 PM 43.2428 -83.9464 163° South 387 445 18,100 -1,550 Descending Cleveland Center
Sun 02:16:12 PM 43.1461 -83.8983 160° South 375 432 16,700 -1,400 Descending Cleveland Center
Sun 02:17:12 PM 43.0514 -83.8564 162° South 370 426 15,300 -1,548 Descending Cleveland Center
Sun 02:17:45 PM 43.0000 -83.8336 162° South 351 404 14,300 -1,400 Descending Cleveland Center
Sun 02:18:12 PM 42.9611 -83.8147 160° South 359 413 13,900 -1,320 Descending Cleveland Center
Sun 02:18:35 PM 42.9242 -83.7900 154° Southeast 349 402 13,200 -1,500 Descending Cleveland Center
Sun 02:19:12 PM 42.8708 -83.7589 157° South 354 407 12,400 -1,309 Descending Cleveland Center
Sun 02:19:30 PM 42.8442 -83.7436 157° South 348 400 12,000 -400 Descending Cleveland Center
Sun 02:20:12 PM 42.7847 -83.7067 155° Southeast 349 402 12,000  Level Cleveland Center
Sun 02:20:31 PM 42.7561 -83.6881 154° Southeast 345 397 12,000  Level Cleveland Center
Sun 02:21:12 PM 42.6986 -83.6542 157° South 349 402 12,000  Level Cleveland Center
Sun 02:21:38 PM 42.6575 -83.6325 159° South 344 396 12,000  Level Cleveland Center
Sun 02:22:12 PM 42.6081 -83.6019 156° South 349 402 12,000  Level Cleveland Center
Sun 02:22:27 PM 42.5878 -83.5894 156° South 343 395 12,000  Level Cleveland Center
Sun 02:23:12 PM 42.5219 -83.5497 156° South 349 402 12,000  Level Cleveland Center
Sun 02:23:34 PM 42.4933 -83.5344 159° South 340 391 12,000 -100 Level Cleveland Center
Sun 02:24:12 PM 42.4378 -83.4981 154° Southeast 344 396 11,900 -98 Descending Cleveland Center
Sun 02:24:35 PM 42.4133 -83.4828 155° Southeast 280 322 11,900  Level Cleveland Center
Sun 02:25:12 PM 42.3761 -83.4697 165° South 306 352 11,900  Level Cleveland Center
Sun 02:25:42 PM 42.3386 -83.4681 178° South 229 264 11,900 -600 Level Cleveland Center
Sun 02:26:12 PM 42.3117 -83.4642 174° South 254 292 11,300 -1,855 Descending Cleveland Center
Sun 02:26:37 PM 42.2822 -83.4656 182° South 226 260 10,200 -2,100 Descending Cleveland Center
Sun 02:27:12 PM 42.2547 -83.4839 206° Southwest 228 262 9,200 -2,073 Descending Cleveland Center
Sun 02:27:32 PM 42.2333 -83.5025 213° Southwest 219 252 8,300 -828 Descending Cleveland Center
Sun 02:28:39 PM 42.1739 -83.5475 209° Southwest 216 249 8,000 -541 Descending Cleveland Center
Sun 02:29:34 PM 42.1292 -83.5875 214° Southwest 211 243 7,200 -1,500 Descending Cleveland Center
Sun 02:30:35 PM 42.0814 -83.5797 173° South 195 224 5,100 -1,304 Descending Cleveland Center
Sun 02:31:29 PM 42.0556 -83.5308 125° Southeast 172 198 4,700 -835 Descending Cleveland Center
Sun 02:32:30 PM 42.0861 -83.4764 53° Northeast 177 204 3,500 -1,219 Descending Cleveland Center
Sun 02:33:37 PM 42.1328 -83.4392 31° Northeast 177 204 2,100 -1,031 Descending Cleveland Center
Sun 02:34:38 PM 42.1733 -83.4047 32° Northeast 139 160 1,300 -787 Descending Cleveland Center

Login

Don't have an account? Register now (free) for customized features, flight alerts, and more!